Bathurst, Australia
Current Conditions -  °F | °C
As of 12:00 AM on Sunday 23 Nov 2014 (Local Time) from YMDG Reporting Station
Clear Clear  
Wind Chill: 68°   Ceiling: Unl
Heat Index: 68°   Visibility: NA
Dew Point: 45°   Wind: 8mph
Humidity: 43%   Direction: 40°NE
Pressure: 29.91"   Gusts: NA
Location:  33.42°S, 149.57°E
Report Text: YMDG 221300Z AUTO 04007KT //// // NCD 20/07 Q1013
Loading
Personal Weather Stations






























Interactive Weather Map New forecast layout! Learn more

10-Day Weather Forecast

Advertisements
Track Severe Weather on mobile